Time;durP1;ratioP1;P1;durP2;ratioP2;P2;SDS_P1;SDS_P2;PMS_P1;PMS_P2;Temp;Humidity;BMP_temperature;BMP_pressure;BME280_temperature;BME280_humidity;BME280_pressure;Samples;Min_cycle;Max_cycle;Signal;HPM_P1;HPM_P2
2021/08/18 00:02:08;;;;;;;11.60;6.80;;;;;;;22.65;58.93;100095.03;117398;1182;24169;-67
2021/08/18 00:04:37;;;;;;;8.70;7.30;;;;;;;22.64;58.57;100093.66;117363;1182;21864;-57
2021/08/18 00:07:05;;;;;;;12.50;6.70;;;;;;;22.62;58.16;100095.21;117307;1182;21869;-67
2021/08/18 00:09:34;;;;;;;9.50;6.90;;;;;;;22.58;58.02;100099.03;117478;1184;23550;-56
2021/08/18 00:12:03;;;;;;;10.90;6.30;;;;;;;22.52;58.10;100105.16;117371;1185;21859;-56
2021/08/18 00:14:31;;;;;;;14.10;7.30;;;;;;;22.51;58.32;100104.02;117387;1182;23569;-66
2021/08/18 00:17:00;;;;;;;10.10;7.00;;;;;;;22.46;58.66;100108.44;117464;1183;22906;-56
2021/08/18 00:19:28;;;;;;;13.10;7.50;;;;;;;22.39;59.02;100115.27;117363;1182;21858;-57
2021/08/18 00:21:57;;;;;;;9.80;8.00;;;;;;;22.39;59.40;100112.28;117339;1183;22774;-56
2021/08/18 00:24:25;;;;;;;14.60;8.90;;;;;;;22.40;60.15;100115.94;117482;1183;21871;-56
2021/08/18 00:26:54;;;;;;;13.20;9.20;;;;;;;22.40;60.80;100122.55;117306;1185;21987;-56
2021/08/18 00:29:40;;;;;;;11.40;9.20;;;;;;;22.43;61.12;100122.94;117338;1185;21853;-56
2021/08/18 00:32:08;;;;;;;11.10;8.90;;;;;;;22.39;61.68;100128.88;117341;1186;23450;-67
2021/08/18 00:34:36;;;;;;;12.10;8.80;;;;;;;22.28;62.20;100133.52;117321;1182;21858;-57
2021/08/18 00:37:04;;;;;;;12.50;9.30;;;;;;;22.27;62.31;100134.50;117274;1181;21855;-67
2021/08/18 00:39:33;;;;;;;12.40;9.80;;;;;;;22.21;62.64;100137.55;117350;1186;23478;-66
2021/08/18 00:42:01;;;;;;;11.60;9.40;;;;;;;22.14;62.80;100136.21;117314;1185;21871;-66
2021/08/18 00:44:29;;;;;;;11.90;9.30;;;;;;;22.13;63.02;100137.15;117392;1182;23474;-56
2021/08/18 00:46:58;;;;;;;10.80;9.50;;;;;;;22.11;63.14;100136.42;117271;1187;23579;-56
2021/08/18 00:49:26;;;;;;;10.30;8.50;;;;;;;22.03;63.56;100142.48;117310;1182;23850;-67
2021/08/18 00:51:55;;;;;;;11.40;9.40;;;;;;;22.04;63.74;100140.63;117357;1184;21858;-56
2021/08/18 00:54:24;;;;;;;11.50;9.40;;;;;;;21.99;63.76;100138.61;117366;1183;23478;-66
2021/08/18 00:56:52;;;;;;;11.70;9.20;;;;;;;21.95;63.85;100138.98;117358;1183;22141;-56
2021/08/18 00:59:21;;;;;;;13.30;9.20;;;;;;;21.95;63.78;100132.59;117349;1185;21863;-59
2021/08/18 01:01:49;;;;;;;12.80;9.00;;;;;;;21.94;63.83;100131.22;117366;1185;21899;-57
2021/08/18 01:04:18;;;;;;;12.10;9.70;;;;;;;21.93;63.70;100133.45;117326;1183;23496;-56
2021/08/18 01:06:46;;;;;;;12.00;9.40;;;;;;;21.91;63.70;100130.35;117351;1184;21856;-56
2021/08/18 01:09:19;;;;;;;14.20;9.40;;;;;;;21.88;63.55;100126.95;117373;1182;23461;-56
2021/08/18 01:11:49;;;;;;;10.80;9.20;;;;;;;21.84;63.48;100129.91;117335;1182;23478;-66
2021/08/18 01:14:27;;;;;;;12.20;8.90;;;;;;;21.84;63.35;100125.46;117352;1185;22204;-66
2021/08/18 01:16:55;;;;;;;10.70;8.90;;;;;;;21.87;63.12;100122.60;117346;1182;24166;-56
2021/08/18 01:19:24;;;;;;;11.30;8.30;;;;;;;21.87;63.05;100126.16;117398;1185;21858;-66
2021/08/18 01:21:52;;;;;;;11.90;9.40;;;;;;;21.88;62.82;100127.33;117444;1185;21954;-57
2021/08/18 01:24:21;;;;;;;11.40;9.70;;;;;;;21.90;62.59;100129.16;117336;1185;21858;-67
2021/08/18 01:26:49;;;;;;;9.20;8.20;;;;;;;21.89;62.40;100129.74;117439;1182;21876;-67
2021/08/18 01:29:17;;;;;;;11.30;9.00;;;;;;;21.89;62.25;100129.73;117404;1182;21855;-57
2021/08/18 01:31:45;;;;;;;12.00;9.10;;;;;;;21.80;62.27;100136.71;117480;1182;23446;-57
2021/08/18 01:34:13;;;;;;;13.90;9.60;;;;;;;21.76;62.45;100135.60;117354;1185;21861;-68
2021/08/18 01:36:41;;;;;;;12.00;9.50;;;;;;;21.73;62.54;100137.92;117354;1176;21860;-67
2021/08/18 01:39:11;;;;;;;10.80;9.00;;;;;;;21.73;62.48;100139.72;117446;1182;21863;-57
2021/08/18 01:41:39;;;;;;;11.10;9.50;;;;;;;21.73;62.41;100138.80;117336;1183;23855;-57
2021/08/18 01:44:07;;;;;;;12.00;9.60;;;;;;;21.77;62.21;100134.10;117322;1182;21855;-68
2021/08/18 01:46:36;;;;;;;14.20;9.50;;;;;;;21.76;62.05;100137.91;117362;1182;23473;-62
2021/08/18 01:49:04;;;;;;;14.00;10.00;;;;;;;21.69;62.20;100143.16;117358;1182;23576;-67
2021/08/18 01:51:33;;;;;;;10.80;9.40;;;;;;;21.65;62.17;100144.32;117429;1182;21990;-68
2021/08/18 01:54:01;;;;;;;14.50;10.20;;;;;;;21.63;62.22;100143.86;117360;1182;22005;-58
2021/08/18 01:56:30;;;;;;;13.50;9.50;;;;;;;21.62;62.19;100141.80;117385;1183;23475;-57
2021/08/18 01:59:06;;;;;;;12.50;9.30;;;;;;;21.61;62.35;100142.19;117370;1179;23474;-57
2021/08/18 02:01:34;;;;;;;9.90;8.60;;;;;;;21.60;62.36;100141.02;117405;1183;23448;-57
2021/08/18 02:04:04;;;;;;;13.20;9.90;;;;;;;21.60;62.27;100142.99;117440;1182;23466;-57
2021/08/18 02:06:52;;;;;;;11.60;9.00;;;;;;;21.60;62.30;100143.36;117353;1185;21855;-56
2021/08/18 02:09:21;;;;;;;15.00;8.90;;;;;;;21.58;62.32;100143.29;117434;1182;21854;-56
2021/08/18 02:11:56;;;;;;;12.20;10.30;;;;;;;21.54;62.34;100141.75;117347;1182;23478;-67
2021/08/18 02:14:45;;;;;;;11.90;10.00;;;;;;;21.52;62.44;100140.04;117374;1181;23439;-66
2021/08/18 02:17:33;;;;;;;12.40;9.80;;;;;;;21.50;62.66;100140.55;117353;1185;22967;-56
2021/08/18 02:20:04;;;;;;;13.10;9.60;;;;;;;21.46;62.75;100139.22;117368;1182;21854;-66
2021/08/18 02:22:33;;;;;;;12.10;9.90;;;;;;;21.45;62.76;100139.64;117349;1184;23467;-56
2021/08/18 02:25:02;;;;;;;13.80;10.30;;;;;;;21.45;62.78;100136.60;117478;1182;21855;-66
2021/08/18 02:27:50;;;;;;;12.30;10.00;;;;;;;21.45;62.65;100133.55;117377;1182;21855;-67
2021/08/18 02:30:21;;;;;;;18.80;10.10;;;;;;;21.45;62.51;100132.83;117492;1183;23456;-67
2021/08/18 02:32:49;;;;;;;16.70;10.00;;;;;;;21.43;62.27;100132.08;117445;1185;21857;-56
2021/08/18 02:35:19;;;;;;;12.00;9.00;;;;;;;21.39;61.95;100129.60;117389;1183;21853;-57
2021/08/18 02:37:47;;;;;;;19.10;9.00;;;;;;;21.38;61.71;100127.92;117378;1183;21860;-67
2021/08/18 02:40:33;;;;;;;13.00;9.30;;;;;;;21.34;61.50;100125.98;117370;1182;23452;-57
2021/08/18 02:43:01;;;;;;;14.20;8.50;;;;;;;21.35;61.24;100132.20;117414;1182;23448;-57
2021/08/18 02:45:30;;;;;;;17.80;9.30;;;;;;;21.32;61.15;100130.04;117540;1185;23448;-67
2021/08/18 02:47:58;;;;;;;12.40;9.10;;;;;;;21.29;61.08;100132.00;117439;1180;22942;-56
2021/08/18 02:50:28;;;;;;;14.80;9.10;;;;;;;21.26;61.02;100129.15;117464;1185;22461;-56
2021/08/18 02:52:56;;;;;;;17.70;9.20;;;;;;;21.24;61.01;100131.77;117382;1185;22998;-67
2021/08/18 02:55:42;;;;;;;14.70;10.30;;;;;;;21.21;60.97;100126.42;117397;1182;23450;-67
2021/08/18 02:58:10;;;;;;;13.60;10.60;;;;;;;21.16;61.07;100130.48;117490;1184;21855;-66
2021/08/18 03:00:39;;;;;;;14.60;10.60;;;;;;;21.10;61.15;100130.81;117448;1182;23451;-56
2021/08/18 03:03:08;;;;;;;18.80;10.50;;;;;;;21.06;61.27;100132.48;117473;1183;23445;-57
2021/08/18 03:05:56;;;;;;;19.30;10.60;;;;;;;21.03;61.25;100132.52;117398;1188;21852;-56
2021/08/18 03:08:24;;;;;;;14.80;10.80;;;;;;;21.04;61.33;100132.05;117428;1184;21854;-57
2021/08/18 03:11:12;;;;;;;17.00;9.40;;;;;;;21.02;61.38;100129.14;117332;1180;22951;-67
2021/08/18 03:13:40;;;;;;;20.70;9.20;;;;;;;20.92;61.33;100129.92;117500;1182;23484;-56
2021/08/18 03:16:15;;;;;;;17.30;9.70;;;;;;;20.85;61.21;100128.95;117401;1185;23360;-56
2021/08/18 03:18:46;;;;;;;15.40;9.60;;;;;;;20.78;61.39;100127.87;117395;1183;23451;-67
2021/08/18 03:21:18;;;;;;;17.00;10.00;;;;;;;20.78;61.43;100130.94;117473;1180;21849;-56
2021/08/18 03:23:47;;;;;;;17.30;10.50;;;;;;;20.80;61.31;100130.81;117409;1182;23442;-67
2021/08/18 03:26:22;;;;;;;13.40;9.50;;;;;;;20.87;61.23;100131.16;117406;1184;23322;-57
2021/08/18 03:28:52;;;;;;;20.50;10.40;;;;;;;20.83;61.23;100126.52;117470;1183;21898;-70
2021/08/18 03:31:39;;;;;;;29.10;10.60;;;;;;;20.87;61.15;100122.42;117393;1180;23211;-57
2021/08/18 03:34:08;;;;;;;33.50;11.20;;;;;;;20.86;61.22;100120.88;117467;1184;21827;-57
2021/08/18 03:36:36;;;;;;;41.20;14.70;;;;;;;20.85;61.23;100119.48;117404;1182;23470;-66
2021/08/18 03:39:04;;;;;;;38.60;17.20;;;;;;;20.84;61.23;100115.96;117365;1182;23316;-57
2021/08/18 03:41:32;;;;;;;30.30;10.90;;;;;;;20.86;61.30;100110.12;117444;1182;23461;-67
2021/08/18 03:44:00;;;;;;;15.10;9.60;;;;;;;20.97;61.14;100112.00;117323;1184;21905;-70
2021/08/18 03:46:29;;;;;;;13.60;9.30;;;;;;;21.06;60.69;100112.48;117394;1185;23476;-68
2021/08/18 03:49:00;;;;;;;13.70;8.70;;;;;;;21.05;60.63;100112.77;117405;1185;21858;-68
2021/08/18 03:51:28;;;;;;;20.00;9.60;;;;;;;21.04;60.94;100113.19;117445;1185;21865;-68
2021/08/18 03:53:56;;;;;;;14.80;8.40;;;;;;;21.02;61.17;100119.02;117384;1182;21993;-57
2021/08/18 03:56:24;;;;;;;19.50;9.00;;;;;;;21.03;61.12;100113.94;117444;1182;21861;-57
2021/08/18 03:58:55;;;;;;;29.50;10.50;;;;;;;21.07;61.28;100107.15;117403;1183;21852;-57
2021/08/18 04:01:24;;;;;;;24.00;10.40;;;;;;;21.15;61.42;100109.83;117467;1185;21854;-68
2021/08/18 04:03:52;;;;;;;18.30;9.40;;;;;;;21.18;61.60;100112.88;117389;1185;23459;-57
2021/08/18 04:06:21;;;;;;;30.10;9.50;;;;;;;21.23;61.68;100110.59;117467;1185;21860;-57
2021/08/18 04:08:50;;;;;;;24.80;9.60;;;;;;;21.29;61.78;100109.54;117362;1185;23441;-57
2021/08/18 04:11:22;;;;;;;16.10;9.40;;;;;;;21.36;61.91;100110.55;117446;1185;23496;-68
2021/08/18 04:13:51;;;;;;;13.90;9.30;;;;;;;21.41;62.07;100105.99;117342;1185;21858;-67
2021/08/18 04:16:19;;;;;;;12.70;9.40;;;;;;;21.50;62.60;100110.40;117478;1182;21859;-57
2021/08/18 04:19:07;;;;;;;12.00;9.50;;;;;;;21.58;63.15;100107.05;117302;1184;21854;-57
2021/08/18 04:21:35;;;;;;;12.60;10.40;;;;;;;21.62;63.60;100106.42;117531;1184;23581;-69
2021/08/18 04:24:05;;;;;;;17.90;12.00;;;;;;;21.72;64.22;100105.48;117415;1182;23644;-57
2021/08/18 04:26:34;;;;;;;16.20;12.40;;;;;;;21.86;64.51;100095.88;117365;1184;23555;-68
2021/08/18 04:29:02;;;;;;;14.50;12.00;;;;;;;21.99;64.58;100096.45;117374;1182;21855;-67
2021/08/18 04:31:30;;;;;;;18.20;11.70;;;;;;;22.13;64.67;100096.81;117243;1183;23471;-57
2021/08/18 04:33:59;;;;;;;17.30;11.90;;;;;;;22.25;64.75;100094.38;117422;1182;22530;-68
2021/08/18 04:36:32;;;;;;;34.80;13.00;;;;;;;22.39;64.84;100094.56;117443;1183;23513;-68
2021/08/18 04:39:00;;;;;;;22.30;12.60;;;;;;;22.53;64.84;100096.66;117299;1185;23914;-58
2021/08/18 04:41:28;;;;;;;16.10;12.60;;;;;;;22.64;64.91;100092.75;117417;1175;21865;-68
2021/08/18 04:43:56;;;;;;;15.60;11.40;;;;;;;22.77;65.09;100094.40;117410;1185;24159;-67
2021/08/18 04:46:24;;;;;;;14.30;11.60;;;;;;;22.90;65.27;100091.58;117424;1184;21920;-57
2021/08/18 04:48:53;;;;;;;14.50;10.90;;;;;;;23.07;65.32;100088.92;117381;1183;23488;-58
2021/08/18 04:51:39;;;;;;;11.90;10.60;;;;;;;23.27;64.98;100088.84;117302;1181;21859;-68
2021/08/18 04:54:08;;;;;;;16.30;11.80;;;;;;;23.46;65.01;100093.95;117493;1182;23447;-68
2021/08/18 04:56:36;;;;;;;14.60;11.80;;;;;;;23.66;65.14;100091.68;117446;1182;21858;-68
2021/08/18 04:59:06;;;;;;;14.70;10.70;;;;;;;23.85;64.69;100090.98;117450;1182;23516;-63
2021/08/18 05:01:35;;;;;;;11.90;10.40;;;;;;;24.03;64.15;100089.94;117436;1183;23987;-67
2021/08/18 05:04:06;;;;;;;12.60;10.90;;;;;;;24.15;63.56;100091.16;117429;1182;23631;-63
2021/08/18 05:06:35;;;;;;;18.00;10.70;;;;;;;24.26;63.63;100093.30;117419;1182;23554;-67
2021/08/18 05:09:04;;;;;;;16.80;10.60;;;;;;;24.44;63.63;100092.83;117386;1183;21855;-69
2021/08/18 05:11:40;;;;;;;13.40;10.20;;;;;;;24.66;63.52;100084.51;117369;1183;24161;-68
2021/08/18 05:14:08;;;;;;;15.50;11.70;;;;;;;24.91;62.98;100086.75;117339;1184;24164;-59
2021/08/18 05:16:39;;;;;;;;;;;;;;;25.15;62.50;100088.69;117430;1185;21839;-70
2021/08/18 05:19:11;;;;;;;21.20;17.00;;;;;;;25.30;62.09;100088.97;117558;1183;21855;-60
2021/08/18 05:21:40;;;;;;;17.80;13.60;;;;;;;25.46;61.24;100091.71;117380;1180;22961;-58
2021/08/18 05:24:08;;;;;;;15.80;11.60;;;;;;;25.58;60.78;100097.44;117278;1185;22101;-71
2021/08/18 05:26:37;;;;;;;14.50;10.10;;;;;;;25.70;59.89;100099.00;117407;1182;22932;-72
2021/08/18 05:29:05;;;;;;;15.30;11.10;;;;;;;25.79;59.33;100095.35;117412;1182;23475;-59
2021/08/18 05:31:34;;;;;;;28.10;13.40;;;;;;;25.91;59.10;100088.86;117398;1185;23479;-71
2021/08/18 05:34:04;;;;;;;14.00;9.80;;;;;;;26.11;58.97;100084.52;117332;1183;24162;-72
2021/08/18 05:36:32;;;;;;;15.40;9.50;;;;;;;26.28;57.84;100082.08;117308;1185;21905;-59
2021/08/18 05:39:00;;;;;;;15.00;10.50;;;;;;;26.41;57.75;100077.40;117286;1184;21860;-59
2021/08/18 05:41:28;;;;;;;19.00;10.10;;;;;;;26.59;57.45;100074.08;117365;1184;24172;-59
2021/08/18 05:43:57;;;;;;;24.40;12.50;;;;;;;26.81;56.99;100074.77;117455;1181;23499;-59
2021/08/18 05:46:29;;;;;;;20.10;10.80;;;;;;;27.15;56.54;100070.63;117520;1185;23479;-58
2021/08/18 05:48:57;;;;;;;12.90;9.00;;;;;;;27.40;55.33;100073.98;117345;1182;22922;-59
2021/08/18 05:51:25;;;;;;;11.20;8.60;;;;;;;27.49;54.48;100074.77;117332;1184;23557;-59
2021/08/18 05:53:53;;;;;;;13.80;9.00;;;;;;;27.53;53.67;100073.65;117228;1182;21855;-72
2021/08/18 05:56:21;;;;;;;23.40;10.60;;;;;;;27.59;53.23;100075.83;117261;1182;23479;-70
2021/08/18 05:58:50;;;;;;;18.40;9.80;;;;;;;27.73;53.25;100071.29;117198;1186;21885;-58
2021/08/18 06:01:18;;;;;;;20.90;10.90;;;;;;;28.01;53.00;100064.71;117324;1185;23449;-69
2021/08/18 06:03:48;;;;;;;18.00;10.30;;;;;;;28.32;52.45;100057.05;117445;1183;23481;-74
2021/08/18 06:06:17;;;;;;;16.80;10.40;;;;;;;28.67;52.30;100047.13;117470;1185;23448;-72
2021/08/18 06:08:45;;;;;;;15.20;9.50;;;;;;;28.97;51.46;100042.55;117463;1182;23448;-59
2021/08/18 06:11:14;;;;;;;13.10;8.80;;;;;;;29.21;50.68;100042.92;117448;1182;23473;-58
2021/08/18 06:13:44;;;;;;;13.20;9.90;;;;;;;29.40;50.01;100044.02;117434;1181;22569;-58
2021/08/18 06:16:13;;;;;;;21.00;10.50;;;;;;;29.60;49.81;100044.79;117413;1185;23468;-70
2021/08/18 06:18:41;;;;;;;12.10;8.90;;;;;;;29.83;49.00;100044.19;117402;1179;21857;-70
2021/08/18 06:21:09;;;;;;;14.10;8.50;;;;;;;30.08;48.15;100044.81;117442;1184;22547;-59
2021/08/18 06:23:48;;;;;;;10.30;7.70;;;;;;;30.29;47.57;100040.79;117301;1185;23530;-59
2021/08/18 06:26:16;;;;;;;12.50;7.00;;;;;;;30.38;46.99;100040.24;117437;1184;22960;-70
2021/08/18 06:28:46;;;;;;;12.60;7.10;;;;;;;30.54;46.89;100041.27;117468;1184;22696;-59
2021/08/18 06:31:14;;;;;;;11.90;7.80;;;;;;;30.72;46.30;100038.59;117416;1184;22925;-59
2021/08/18 06:33:42;;;;;;;12.50;7.50;;;;;;;30.86;45.68;100037.70;117467;1185;23554;-69
2021/08/18 06:36:10;;;;;;;11.70;7.00;;;;;;;31.21;45.72;100033.71;117433;1182;22958;-58
2021/08/18 06:38:39;;;;;;;11.20;7.00;;;;;;;31.55;44.91;100029.27;117343;1184;23555;-70
2021/08/18 06:41:07;;;;;;;8.90;6.90;;;;;;;31.92;44.09;100023.72;117395;1185;24169;-59
2021/08/18 06:43:38;;;;;;;10.30;6.30;;;;;;;32.30;43.02;100017.05;117363;1185;23634;-59
2021/08/18 06:46:06;;;;;;;10.40;6.10;;;;;;;32.64;41.97;100012.38;117298;1185;22619;-61
2021/08/18 06:48:35;;;;;;;8.20;6.60;;;;;;;32.83;41.22;100015.56;117293;1184;21860;-76
2021/08/18 06:51:05;;;;;;;13.90;7.00;;;;;;;33.03;40.40;100014.95;117302;1185;23552;-73
2021/08/18 06:53:33;;;;;;;12.50;6.20;;;;;;;33.13;39.65;100013.15;117406;1185;23554;-60
2021/08/18 06:56:01;;;;;;;8.90;6.70;;;;;;;33.16;39.26;100018.62;117351;1184;22633;-60
2021/08/18 06:58:45;;;;;;;10.80;6.50;;;;;;;33.24;39.47;100023.50;117418;1182;24177;-60
2021/08/18 07:01:13;;;;;;;8.00;6.20;;;;;;;33.35;38.71;100026.21;117321;1183;22616;-60
2021/08/18 07:03:41;;;;;;;10.20;6.60;;;;;;;33.38;37.76;100029.32;117389;1183;24176;-62
2021/08/18 07:06:10;;;;;;;10.80;6.50;;;;;;;33.37;37.95;100032.17;117379;1182;21910;-60
2021/08/18 07:08:38;;;;;;;10.10;6.50;;;;;;;33.48;37.83;100029.50;117351;1186;21854;-75
2021/08/18 07:11:06;;;;;;;9.90;6.90;;;;;;;33.58;37.54;100027.17;117349;1184;21854;-60
2021/08/18 07:14:00;;;;;;;52.40;10.10;;;;;;;33.72;36.94;100029.69;117382;1185;22002;-78
2021/08/18 07:16:30;;;;;;;10.60;6.40;;;;;;;33.74;36.24;100027.29;117439;1183;21858;-64
2021/08/18 07:19:08;;;;;;;13.10;6.50;;;;;;;33.63;36.69;100025.85;117352;1184;22573;-76
2021/08/18 07:21:56;;;;;;;20.20;6.90;;;;;;;33.68;36.76;100024.83;117371;1184;21960;-79
2021/08/18 07:24:24;;;;;;;10.20;6.00;;;;;;;33.77;36.61;100022.52;117370;1185;23451;-76
2021/08/18 07:26:54;;;;;;;13.10;6.30;;;;;;;33.99;36.62;100017.42;117417;1182;22915;-75
2021/08/18 07:29:23;;;;;;;7.60;6.00;;;;;;;34.41;36.39;100012.58;117456;1184;23471;-74
2021/08/18 07:31:51;;;;;;;12.50;6.40;;;;;;;34.81;35.91;100014.50;117407;1185;23556;-61
2021/08/18 07:34:19;;;;;;;16.20;7.00;;;;;;;35.09;34.78;100012.03;117389;1182;23553;-71
2021/08/18 07:36:47;;;;;;;8.90;6.10;;;;;;;35.25;34.12;100010.27;117362;1185;21848;-61
2021/08/18 07:39:15;;;;;;;12.30;7.30;;;;;;;35.39;34.26;100014.94;117319;1185;21875;-71
2021/08/18 07:41:43;;;;;;;11.40;6.40;;;;;;;35.49;34.47;100017.77;117446;1181;24172;-60
2021/08/18 07:44:11;;;;;;;8.00;6.00;;;;;;;35.60;33.35;100018.84;117423;1184;21852;-61
2021/08/18 07:46:40;;;;;;;8.50;6.80;;;;;;;35.49;33.49;100018.67;117388;1185;23452;-60
2021/08/18 07:49:08;;;;;;;11.30;7.20;;;;;;;35.42;33.11;100018.94;117399;1184;21862;-60
2021/08/18 07:51:37;;;;;;;9.80;6.50;;;;;;;35.15;33.15;100021.19;117458;1184;23451;-60
2021/08/18 07:54:05;;;;;;;8.70;6.30;;;;;;;35.04;33.43;100023.02;117508;1185;21855;-60
2021/08/18 07:56:34;;;;;;;8.30;5.70;;;;;;;35.11;32.83;100017.77;117359;1184;22967;-73
2021/08/18 07:59:02;;;;;;;15.30;6.40;;;;;;;35.29;33.47;100016.50;117367;1181;24273;-60
2021/08/18 08:01:35;;;;;;;8.90;6.00;;;;;;;35.55;32.80;100018.48;117354;1185;24221;-62
2021/08/18 08:04:04;;;;;;;9.60;5.90;;;;;;;35.55;31.67;100021.06;117466;1185;24159;-61
2021/08/18 08:06:33;;;;;;;10.10;5.70;;;;;;;35.41;31.67;100021.08;117387;1182;22280;-74
2021/08/18 08:09:02;;;;;;;15.70;6.40;;;;;;;35.37;31.57;100022.33;117355;1182;24283;-60
2021/08/18 08:11:30;;;;;;;9.90;5.20;;;;;;;35.37;31.21;100020.52;117811;1182;22170;-58
2021/08/18 08:13:59;;;;;;;12.70;5.90;;;;;;;35.52;31.60;100018.11;118044;1185;21856;-73
2021/08/18 08:16:28;;;;;;;10.70;6.20;;;;;;;35.91;31.00;100016.20;117403;1184;22316;-60
2021/08/18 08:18:56;;;;;;;13.40;6.40;;;;;;;36.04;31.26;100012.20;117493;1182;21856;-64
2021/08/18 08:21:27;;;;;;;9.10;5.90;;;;;;;36.15;31.19;100012.43;117377;1183;23633;-66
2021/08/18 08:23:56;;;;;;;11.90;5.60;;;;;;;36.30;30.72;100006.56;117466;1185;23519;-62
2021/08/18 08:26:24;;;;;;;8.70;5.90;;;;;;;36.47;30.33;100002.64;117381;1180;24181;-60
2021/08/18 08:28:53;;;;;;;78.90;10.40;;;;;;;36.70;29.72;100002.40;117534;1184;24170;-60
2021/08/18 08:31:21;;;;;;;20.00;6.40;;;;;;;36.83;29.36;100007.17;117404;1183;23570;-72
2021/08/18 08:33:50;;;;;;;10.40;5.60;;;;;;;36.83;28.76;100006.24;117351;1183;23557;-72
2021/08/18 08:36:18;;;;;;;45.90;7.70;;;;;;;36.77;28.07;100005.87;117308;1183;23566;-59
2021/08/18 08:38:47;;;;;;;10.60;6.00;;;;;;;36.71;27.70;100007.67;117360;1183;24196;-60
2021/08/18 08:41:19;;;;;;;11.90;5.80;;;;;;;36.69;27.75;100007.38;117423;1180;23737;-73
2021/08/18 08:43:47;;;;;;;10.10;6.10;;;;;;;36.77;28.25;100006.71;117474;1184;24216;-70
2021/08/18 08:46:16;;;;;;;11.60;6.40;;;;;;;36.82;28.23;100006.48;117382;1184;23449;-69
2021/08/18 08:48:44;;;;;;;11.40;6.10;;;;;;;36.97;28.71;100008.20;117471;1185;21853;-60
2021/08/18 08:51:19;;;;;;;10.50;6.60;;;;;;;37.35;28.85;100006.34;117451;1185;21858;-60
2021/08/18 08:53:47;;;;;;;9.80;6.30;;;;;;;37.52;27.90;100002.38;117358;1185;23570;-60
2021/08/18 08:56:16;;;;;;;9.80;6.70;;;;;;;37.35;28.08;100002.33;117368;1184;23570;-73
2021/08/18 08:58:45;;;;;;;11.50;6.80;;;;;;;37.19;29.02;99996.47;117410;1182;23724;-72
2021/08/18 09:01:14;;;;;;;11.60;7.10;;;;;;;37.32;29.19;99993.74;117451;1182;23554;-74
2021/08/18 09:03:46;;;;;;;11.90;7.10;;;;;;;37.48;28.70;99987.88;117479;1185;23570;-60
2021/08/18 09:06:20;;;;;;;10.10;6.50;;;;;;;37.21;27.99;99987.16;117352;1184;22925;-59
2021/08/18 09:08:50;;;;;;;11.10;6.70;;;;;;;37.08;28.75;99985.02;117436;1184;21855;-59
2021/08/18 09:11:32;;;;;;;17.10;6.50;;;;;;;37.51;28.78;99979.97;117345;1180;23665;-76
2021/08/18 09:14:00;;;;;;;9.80;6.00;;;;;;;38.21;28.08;99974.38;117397;1185;22090;-73
2021/08/18 09:16:37;;;;;;;9.60;6.20;;;;;;;38.92;27.38;99973.27;117340;1185;21861;-60
2021/08/18 09:19:30;;;;;;;8.90;5.80;;;;;;;39.62;26.75;99972.70;118970;1183;21845;-60
2021/08/18 09:22:06;;;;;;;11.30;6.70;;;;;;;39.91;25.30;99973.04;117392;1185;21887;-76
2021/08/18 09:24:35;;;;;;;8.40;6.00;;;;;;;39.55;25.13;99968.40;117397;1183;21861;-69
2021/08/18 09:27:08;;;;;;;12.40;6.50;;;;;;;39.19;25.80;99965.54;117327;1185;21869;-68
2021/08/18 09:29:44;;;;;;;7.30;5.60;;;;;;;39.01;25.92;99968.20;117444;1183;22999;-67
2021/08/18 09:32:23;;;;;;;12.40;7.00;;;;;;;38.77;25.69;99966.58;117460;1185;24145;-58
2021/08/18 09:35:08;;;;;;;9.70;6.30;;;;;;;38.66;25.98;99966.01;117357;1184;23557;-69
2021/08/18 09:37:37;;;;;;;10.60;6.30;;;;;;;38.61;25.78;99957.98;117471;1182;23442;-67
2021/08/18 09:40:25;;;;;;;13.80;6.20;;;;;;;38.56;25.81;99954.77;117459;1185;21852;-58
2021/08/18 09:43:14;;;;;;;11.30;6.40;;;;;;;38.68;25.95;99953.02;117374;1185;22006;-58
2021/08/18 09:45:45;;;;;;;19.60;7.90;;;;;;;39.01;26.04;99952.56;117440;1185;21848;-66
2021/08/18 09:48:16;;;;;;;13.40;6.40;;;;;;;39.44;26.01;99953.65;117499;1181;22647;-67
2021/08/18 09:51:06;;;;;;;11.10;6.00;;;;;;;39.88;25.55;99956.84;117401;1182;21858;-67
2021/08/18 09:53:39;;;;;;;8.00;5.90;;;;;;;40.12;24.51;99959.30;117429;1181;24616;-67
2021/08/18 09:56:17;;;;;;;10.20;6.30;;;;;;;40.18;23.60;99954.71;117420;1182;23554;-60
2021/08/18 09:58:57;;;;;;;8.50;5.80;;;;;;;40.25;23.37;99955.34;117412;1181;23554;-57
2021/08/18 10:01:25;;;;;;;8.80;6.20;;;;;;;40.17;23.63;99955.56;117461;1185;21855;-69
2021/08/18 10:03:53;;;;;;;12.20;6.00;;;;;;;40.12;24.08;99957.30;117476;1182;23554;-58
2021/08/18 10:06:22;;;;;;;7.80;5.20;;;;;;;40.16;23.30;99958.77;117452;1182;23577;-59
2021/08/18 10:08:53;;;;;;;12.30;6.90;;;;;;;39.97;22.84;99957.59;117529;1183;24138;-58
2021/08/18 10:11:31;;;;;;;14.80;7.80;;;;;;;39.74;22.87;99957.73;117474;1176;23579;-69
2021/08/18 10:14:20;;;;;;;21.90;8.40;;;;;;;39.54;23.05;99952.90;117408;1186;21846;-58
2021/08/18 10:16:50;;;;;;;11.70;7.10;;;;;;;39.66;23.16;99948.64;117461;1184;21887;-58
2021/08/18 10:19:20;;;;;;;48.60;9.90;;;;;;;39.70;22.44;99948.30;117427;1182;22838;-69
2021/08/18 10:21:50;;;;;;;36.30;8.80;;;;;;;39.76;22.59;99948.27;117336;1184;22976;-68
2021/08/18 10:24:35;;;;;;;10.30;6.20;;;;;;;39.99;22.64;99950.20;117197;1184;22556;-70
2021/08/18 10:27:05;;;;;;;12.60;6.10;;;;;;;39.98;22.61;99949.56;117432;1183;22915;-69
2021/08/18 10:29:37;;;;;;;10.50;5.60;;;;;;;39.79;22.85;99947.11;117423;1185;21865;-69
2021/08/18 10:32:13;;;;;;;9.30;6.50;;;;;;;39.72;23.26;99953.42;117393;1182;21862;-58
2021/08/18 10:34:45;;;;;;;10.20;6.40;;;;;;;39.86;23.21;99952.55;117403;1185;21858;-57
2021/08/18 10:37:24;;;;;;;8.20;5.60;;;;;;;40.12;23.21;99951.11;117499;1184;21867;-68
2021/08/18 10:39:54;;;;;;;9.30;5.90;;;;;;;40.66;23.22;99944.48;117477;1182;22922;-68
2021/08/18 10:42:39;;;;;;;6.80;5.70;;;;;;;41.08;22.72;99944.75;117434;1185;21867;-68
2021/08/18 10:45:18;;;;;;;13.70;6.40;;;;;;;41.18;21.95;99944.25;117498;1182;22661;-68
2021/08/18 10:47:46;;;;;;;7.20;5.70;;;;;;;41.26;22.37;99940.71;117381;1185;23460;-67
2021/08/18 10:50:16;;;;;;;6.80;5.30;;;;;;;41.62;22.38;99941.80;117460;1184;24315;-68
2021/08/18 10:52:45;;;;;;;10.40;6.20;;;;;;;41.96;21.68;99940.36;117330;1183;21867;-67
2021/08/18 10:55:16;;;;;;;6.40;5.00;;;;;;;42.30;21.56;99938.20;117382;1182;23361;-67
2021/08/18 10:58:12;;;;;;;17.70;6.50;;;;;;;42.48;20.55;99935.78;117394;1184;21867;-57
2021/08/18 11:00:44;;;;;;;7.70;6.10;;;;;;;42.04;20.02;99935.29;117176;1187;24250;-67
2021/08/18 11:03:13;;;;;;;8.90;5.50;;;;;;;41.66;20.35;99937.12;117003;1188;21988;-66
2021/08/18 11:05:45;;;;;;;22.70;6.00;;;;;;;41.59;20.77;99932.89;117184;1186;23501;-59
2021/08/18 11:08:15;;;;;;;9.80;6.10;;;;;;;41.74;20.90;99926.28;117101;1191;21853;-57
2021/08/18 11:11:09;;;;;;;10.10;5.70;;;;;;;41.85;20.07;99922.15;117091;1184;23547;-57
2021/08/18 11:13:52;;;;;;;11.20;6.50;;;;;;;41.67;20.12;99922.45;117072;1183;24317;-56
2021/08/18 11:16:24;;;;;;;11.70;6.10;;;;;;;41.42;20.98;99923.76;117115;1188;23494;-67
2021/08/18 11:18:56;;;;;;;7.50;5.90;;;;;;;41.36;20.84;99926.06;117098;1188;23456;-56
2021/08/18 11:21:44;;;;;;;13.40;6.30;;;;;;;41.27;20.78;99923.07;117102;1184;23394;-67
2021/08/18 11:24:15;;;;;;;11.20;6.10;;;;;;;41.40;21.18;99922.64;117091;1189;22071;-67
2021/08/18 11:26:49;;;;;;;9.20;5.60;;;;;;;41.31;19.95;99920.60;117094;1186;22835;-56
2021/08/18 11:29:20;;;;;;;9.80;5.80;;;;;;;41.03;20.31;99917.20;116882;1188;22773;-57
2021/08/18 11:31:50;;;;;;;11.20;6.20;;;;;;;41.13;20.85;99911.97;117143;1187;21858;-66